Time;durP1;ratioP1;P1;durP2;ratioP2;P2;SDS_P1;SDS_P2;PMS_P1;PMS_P2;Temp;Humidity;BMP_temperature;BMP_pressure;BME280_temperature;BME280_humidity;BME280_pressure;Samples;Min_cycle;Max_cycle;Signal;HPM_P1;HPM_P2
2021/07/01 00:01:04;;;;;;;1.52;1.00;;;12.40;99.90;;;;;;5054534;28;20044;-65
2021/07/01 00:03:30;;;;;;;1.27;0.75;;;12.40;99.90;;;;;;5053392;28;20090;-65
2021/07/01 00:05:56;;;;;;;1.70;1.00;;;12.40;99.90;;;;;;5053693;28;20025;-64
2021/07/01 00:08:22;;;;;;;1.88;0.70;;;12.30;99.90;;;;;;5053133;28;20025;-64
2021/07/01 00:10:48;;;;;;;0.60;0.60;;;12.30;99.90;;;;;;5053843;28;20028;-64
2021/07/01 00:13:14;;;;;;;0.77;0.50;;;12.30;99.90;;;;;;5053898;28;20086;-64
2021/07/01 00:15:39;;;;;;;0.60;0.60;;;12.30;99.90;;;;;;5052641;28;20079;-64
2021/07/01 00:18:05;;;;;;;1.77;0.70;;;12.30;99.90;;;;;;5053670;28;20080;-64
2021/07/01 00:20:32;;;;;;;4.18;0.90;;;12.30;99.90;;;;;;5052601;28;20051;-64
2021/07/01 00:22:57;;;;;;;1.95;0.88;;;12.30;99.90;;;;;;5053678;28;20033;-64
2021/07/01 00:25:23;;;;;;;0.70;0.65;;;12.40;99.90;;;;;;5052846;28;20466;-64
2021/07/01 00:27:49;;;;;;;0.85;0.70;;;12.30;99.90;;;;;;5053547;28;20033;-64
2021/07/01 00:30:17;;;;;;;1.05;0.60;;;12.30;99.90;;;;;;5053501;28;20036;-64
2021/07/01 00:32:43;;;;;;;0.73;0.68;;;12.30;99.90;;;;;;5052934;28;20053;-64
2021/07/01 00:35:10;;;;;;;4.32;0.90;;;12.30;99.90;;;;;;5053258;28;20021;-64
2021/07/01 00:37:36;;;;;;;1.95;0.80;;;12.30;99.90;;;;;;5052253;28;20055;-64
2021/07/01 00:40:08;;;;;;;2.38;0.55;;;12.30;99.90;;;;;;5052914;28;20463;-63
2021/07/01 00:42:35;;;;;;;1.25;0.73;;;12.40;99.90;;;;;;5052438;28;20086;-64
2021/07/01 00:45:00;;;;;;;0.65;0.50;;;12.30;99.90;;;;;;5053164;28;20037;-64
2021/07/01 00:47:26;;;;;;;1.58;0.60;;;12.30;99.90;;;;;;5051259;28;20025;-63
2021/07/01 00:49:53;;;;;;;0.68;0.40;;;12.30;99.90;;;;;;5052926;28;20531;-63
2021/07/01 00:52:19;;;;;;;2.42;0.60;;;12.30;99.90;;;;;;5053005;28;20044;-64
2021/07/01 00:54:46;;;;;;;1.88;0.70;;;12.30;99.90;;;;;;5052152;28;20056;-63
2021/07/01 00:57:11;;;;;;;0.65;0.50;;;12.30;99.90;;;;;;5052754;28;20029;-63
2021/07/01 00:59:38;;;;;;;0.55;0.55;;;12.30;99.90;;;;;;5051887;28;20078;-63
2021/07/01 01:02:07;;;;;;;0.77;0.55;;;12.40;99.90;;;;;;5051909;28;20378;-63
2021/07/01 01:04:34;;;;;;;;;;;12.30;99.90;;;;;;5052657;28;20143;-63
2021/07/01 01:07:01;;;;;;;0.98;0.50;;;12.40;99.90;;;;;;5052255;28;19920;-63
2021/07/01 01:09:27;;;;;;;1.58;0.40;;;12.40;99.90;;;;;;5051766;28;20041;-64
2021/07/01 01:11:52;;;;;;;0.50;0.50;;;12.40;99.90;;;;;;5052670;28;20104;-64
2021/07/01 01:14:18;;;;;;;0.68;0.65;;;12.40;99.90;;;;;;5052810;28;20032;-64
2021/07/01 01:16:44;;;;;;;2.08;0.93;;;12.40;99.90;;;;;;5052110;28;20025;-63
2021/07/01 01:19:09;;;;;;;0.73;0.50;;;12.40;99.90;;;;;;5052356;28;20414;-64
2021/07/01 01:21:36;;;;;;;0.60;0.60;;;12.40;99.90;;;;;;5051320;28;20086;-64
2021/07/01 01:24:04;;;;;;;0.60;0.60;;;12.40;99.90;;;;;;5050759;28;20032;-64
2021/07/01 01:26:29;;;;;;;0.60;0.50;;;12.50;99.90;;;;;;5049955;28;20029;-64
2021/07/01 01:28:55;;;;;;;2.50;0.95;;;12.50;99.90;;;;;;5051042;28;20432;-63
2021/07/01 01:31:21;;;;;;;0.70;0.70;;;12.50;99.90;;;;;;5050654;28;20029;-64
2021/07/01 01:33:49;;;;;;;1.63;0.60;;;12.40;99.90;;;;;;5050571;28;20470;-64
2021/07/01 01:36:14;;;;;;;0.90;0.50;;;12.50;99.90;;;;;;5048004;28;20090;-64
2021/07/01 01:38:40;;;;;;;0.60;0.60;;;12.50;99.90;;;;;;5050012;28;20108;-64
2021/07/01 01:41:06;;;;;;;1.27;0.68;;;12.40;99.90;;;;;;5050735;28;20029;-64
2021/07/01 01:43:31;;;;;;;1.85;0.50;;;12.50;99.90;;;;;;5050014;28;20087;-64
2021/07/01 01:45:57;;;;;;;1.38;0.50;;;12.50;99.90;;;;;;5050811;28;20028;-63
2021/07/01 01:48:23;;;;;;;1.17;0.43;;;12.50;99.90;;;;;;5050244;28;20032;-64
2021/07/01 01:50:49;;;;;;;1.63;0.40;;;12.50;99.90;;;;;;5050289;28;20038;-64
2021/07/01 01:53:15;;;;;;;0.73;0.50;;;12.50;99.90;;;;;;5050394;28;20035;-64
2021/07/01 01:55:41;;;;;;;2.38;0.47;;;12.50;99.90;;;;;;5049673;28;20028;-64
2021/07/01 01:58:07;;;;;;;2.72;0.40;;;12.50;99.90;;;;;;5050566;28;20070;-64
2021/07/01 02:00:34;;;;;;;0.20;0.20;;;12.50;99.90;;;;;;5050034;28;20517;-64
2021/07/01 02:03:00;;;;;;;1.55;0.20;;;12.50;99.90;;;;;;5050350;28;20045;-64
2021/07/01 02:05:26;;;;;;;1.45;0.30;;;12.50;99.90;;;;;;5049529;28;20449;-64
2021/07/01 02:07:52;;;;;;;1.42;0.40;;;12.50;99.90;;;;;;5050035;28;20025;-64
2021/07/01 02:10:21;;;;;;;0.57;0.57;;;12.60;99.90;;;;;;5049745;28;20355;-64
2021/07/01 02:12:48;;;;;;;0.30;0.30;;;12.60;99.90;;;;;;5049924;28;20029;-64
2021/07/01 02:15:15;;;;;;;1.13;0.40;;;12.60;99.90;;;;;;5048363;28;20355;-64
2021/07/01 02:17:41;;;;;;;0.70;0.30;;;12.60;99.90;;;;;;5050934;28;20040;-64
2021/07/01 02:20:14;;;;;;;0.38;0.32;;;12.60;99.90;;;;;;5051476;28;20087;-64
2021/07/01 02:22:40;;;;;;;0.90;0.40;;;12.60;99.90;;;;;;5050702;28;20033;-64
2021/07/01 02:25:08;;;;;;;0.30;0.30;;;12.60;99.90;;;;;;5051159;28;20032;-64
2021/07/01 02:27:34;;;;;;;0.43;0.30;;;12.60;99.90;;;;;;5050763;28;20025;-64
2021/07/01 02:30:01;;;;;;;0.80;0.38;;;12.60;99.90;;;;;;5051084;28;20036;-64
2021/07/01 02:32:27;;;;;;;0.63;0.22;;;12.60;99.90;;;;;;5050782;28;20033;-64
2021/07/01 02:34:52;;;;;;;2.35;0.30;;;12.60;99.90;;;;;;5051438;28;20390;-64
2021/07/01 02:37:19;;;;;;;0.30;0.30;;;12.60;99.90;;;;;;5051458;28;20032;-63
2021/07/01 02:39:46;;;;;;;0.73;0.40;;;12.60;99.90;;;;;;5050737;28;20029;-64
2021/07/01 02:42:12;;;;;;;1.08;0.47;;;12.60;99.90;;;;;;5051225;28;20451;-64
2021/07/01 02:44:37;;;;;;;1.98;0.50;;;12.60;99.90;;;;;;5050409;28;20036;-64
2021/07/01 02:47:03;;;;;;;1.75;0.38;;;12.70;99.90;;;;;;5051399;28;20025;-64
2021/07/01 02:49:29;;;;;;;1.00;0.40;;;12.70;99.90;;;;;;5050726;28;20031;-64
2021/07/01 02:51:55;;;;;;;0.32;0.32;;;12.60;99.90;;;;;;5051090;28;20029;-64
2021/07/01 02:54:21;;;;;;;0.38;0.38;;;12.70;99.90;;;;;;5050903;28;20053;-64
2021/07/01 02:56:48;;;;;;;3.33;0.40;;;12.70;99.90;;;;;;5050332;28;20422;-64
2021/07/01 02:59:15;;;;;;;0.50;0.43;;;12.60;99.90;;;;;;5051785;28;20110;-64
2021/07/01 03:01:42;;;;;;;1.58;0.40;;;12.70;99.90;;;;;;5050443;28;20033;-64
2021/07/01 03:04:08;;;;;;;0.40;0.40;;;12.70;99.90;;;;;;5050840;28;20493;-64
2021/07/01 03:06:34;;;;;;;0.50;0.50;;;12.70;99.90;;;;;;5050276;28;20382;-64
2021/07/01 03:09:01;;;;;;;0.70;0.32;;;12.70;99.90;;;;;;5051628;28;20104;-64
2021/07/01 03:11:27;;;;;;;0.30;0.30;;;12.70;99.90;;;;;;5050395;28;20043;-64
2021/07/01 03:13:53;;;;;;;0.40;0.40;;;12.70;99.90;;;;;;5049924;28;20036;-64
2021/07/01 03:16:20;;;;;;;0.88;0.60;;;12.70;99.90;;;;;;5051436;28;20055;-64
2021/07/01 03:18:50;;;;;;;0.40;0.40;;;12.70;99.90;;;;;;5050212;28;20029;-64
2021/07/01 03:21:16;;;;;;;0.57;0.50;;;12.70;99.90;;;;;;5052006;28;20079;-64
2021/07/01 03:23:43;;;;;;;3.28;0.45;;;12.70;99.90;;;;;;5053995;28;20256;-64
2021/07/01 03:26:08;;;;;;;0.40;0.40;;;12.70;99.90;;;;;;5054677;28;20032;-64
2021/07/01 03:28:34;;;;;;;0.63;0.50;;;12.70;99.90;;;;;;5053610;28;20028;-64
2021/07/01 03:31:00;;;;;;;2.92;0.50;;;12.70;99.90;;;;;;5054436;28;20037;-64
2021/07/01 03:33:26;;;;;;;2.05;0.60;;;12.70;99.90;;;;;;5053756;28;20025;-64
2021/07/01 03:35:51;;;;;;;0.98;0.65;;;12.70;99.90;;;;;;5054482;28;20103;-64
2021/07/01 03:38:17;;;;;;;1.00;0.73;;;12.80;99.90;;;;;;5054042;28;20108;-64
2021/07/01 03:40:43;;;;;;;1.05;0.40;;;12.70;99.90;;;;;;5053895;28;20033;-64
2021/07/01 03:43:08;;;;;;;0.60;0.50;;;12.80;99.90;;;;;;5054454;28;20033;-64
2021/07/01 03:45:34;;;;;;;0.68;0.60;;;12.80;99.90;;;;;;5053429;28;20095;-64
2021/07/01 03:48:00;;;;;;;1.75;0.60;;;12.80;99.90;;;;;;5054089;28;20029;-64
2021/07/01 03:50:25;;;;;;;0.60;0.60;;;12.80;99.90;;;;;;5053369;28;20171;-66
2021/07/01 03:52:51;;;;;;;1.85;0.57;;;12.70;99.90;;;;;;5053592;28;20044;-64
2021/07/01 03:55:20;;;;;;;1.95;0.50;;;12.80;99.90;;;;;;5054328;28;20470;-64
2021/07/01 03:57:46;;;;;;;0.80;0.60;;;12.80;99.90;;;;;;5053444;28;20078;-64
2021/07/01 04:00:13;;;;;;;1.42;0.57;;;12.80;99.90;;;;;;5054197;28;20024;-64
2021/07/01 04:02:39;;;;;;;0.45;0.45;;;12.80;99.90;;;;;;5053231;28;20071;-64
2021/07/01 04:05:06;;;;;;;0.63;0.55;;;12.80;99.90;;;;;;5053921;28;20418;-64
2021/07/01 04:07:32;;;;;;;0.85;0.50;;;12.80;99.90;;;;;;5052913;28;20035;-64
2021/07/01 04:10:02;;;;;;;0.40;0.40;;;12.90;99.90;;;;;;5053636;28;20449;-64
2021/07/01 04:12:27;;;;;;;0.55;0.30;;;12.80;99.90;;;;;;5053193;28;20024;-64
2021/07/01 04:14:53;;;;;;;1.77;0.60;;;12.80;99.90;;;;;;5053667;28;20021;-64
2021/07/01 04:17:18;;;;;;;2.17;0.63;;;12.80;99.90;;;;;;5053652;28;20029;-64
2021/07/01 04:19:44;;;;;;;0.43;0.40;;;12.90;99.90;;;;;;5052640;28;20025;-64
2021/07/01 04:22:10;;;;;;;2.03;0.40;;;12.90;99.90;;;;;;5053712;28;20111;-64
2021/07/01 04:24:35;;;;;;;0.65;0.57;;;12.90;99.90;;;;;;5052840;28;20459;-64
2021/07/01 04:27:01;;;;;;;0.98;0.45;;;13.00;99.90;;;;;;5053655;28;20029;-63
2021/07/01 04:29:27;;;;;;;0.52;0.52;;;13.00;99.90;;;;;;5052870;28;20466;-64
2021/07/01 04:31:52;;;;;;;1.08;0.60;;;13.00;99.90;;;;;;5053194;28;20040;-63
2021/07/01 04:34:18;;;;;;;1.42;0.68;;;13.00;99.90;;;;;;5052606;28;20032;-64
2021/07/01 04:36:44;;;;;;;0.68;0.68;;;13.10;99.90;;;;;;5051328;28;20024;-63
2021/07/01 04:39:09;;;;;;;1.50;0.57;;;13.10;99.90;;;;;;5053409;28;20347;-63
2021/07/01 04:41:35;;;;;;;0.50;0.50;;;13.10;99.90;;;;;;5052309;28;20036;-64
2021/07/01 04:44:01;;;;;;;1.05;0.40;;;13.10;99.90;;;;;;5053208;28;20467;-64
2021/07/01 04:46:26;;;;;;;0.95;0.63;;;13.10;99.90;;;;;;5052451;28;20558;-64
2021/07/01 04:48:53;;;;;;;1.67;0.70;;;13.20;99.90;;;;;;5052959;28;20025;-63
2021/07/01 04:51:19;;;;;;;0.50;0.50;;;13.20;99.90;;;;;;5053315;28;20024;-64
2021/07/01 04:53:44;;;;;;;2.05;0.60;;;13.20;99.90;;;;;;5052062;28;20107;-66
2021/07/01 04:56:10;;;;;;;1.23;0.50;;;13.30;99.90;;;;;;5053341;28;20083;-65
2021/07/01 04:58:36;;;;;;;0.60;0.60;;;13.30;99.90;;;;;;5052001;28;20021;-66
2021/07/01 05:01:01;;;;;;;1.05;0.50;;;13.30;99.90;;;;;;5053181;28;20065;-63
2021/07/01 05:03:27;;;;;;;1.80;0.60;;;13.30;99.90;;;;;;5052601;28;20039;-65
2021/07/01 05:05:54;;;;;;;0.70;0.70;;;13.40;99.90;;;;;;5052459;28;20025;-65
2021/07/01 05:08:20;;;;;;;1.85;0.60;;;13.40;99.90;;;;;;5053017;28;20374;-65
2021/07/01 05:10:45;;;;;;;1.58;0.52;;;13.40;99.90;;;;;;5051871;28;20115;-65
2021/07/01 05:13:11;;;;;;;1.48;0.70;;;13.40;99.90;;;;;;5053084;28;20492;-65
2021/07/01 05:15:37;;;;;;;0.75;0.60;;;13.50;99.90;;;;;;5052027;28;20029;-65
2021/07/01 05:18:03;;;;;;;0.40;0.40;;;13.50;99.90;;;;;;5053267;28;20029;-65
2021/07/01 05:20:29;;;;;;;0.50;0.50;;;13.50;99.90;;;;;;5051635;28;20029;-65
2021/07/01 05:22:54;;;;;;;1.75;0.50;;;13.50;99.90;;;;;;5052320;28;20037;-65
2021/07/01 05:25:20;;;;;;;0.52;0.50;;;13.50;99.90;;;;;;5052424;28;20096;-65
2021/07/01 05:27:46;;;;;;;3.05;0.60;;;13.60;99.90;;;;;;5051969;28;20032;-64
2021/07/01 05:30:12;;;;;;;0.63;0.63;;;13.60;99.90;;;;;;5052704;28;20025;-66
2021/07/01 05:32:38;;;;;;;1.02;0.80;;;13.70;99.90;;;;;;5051026;28;20064;-66
2021/07/01 05:35:05;;;;;;;1.75;0.73;;;13.70;99.90;;;;;;5051708;28;20470;-65
2021/07/01 05:37:31;;;;;;;1.33;0.60;;;13.80;99.90;;;;;;5050460;28;20155;-66
2021/07/01 05:39:56;;;;;;;14.93;1.02;;;13.90;99.90;;;;;;5052029;28;20029;-66
2021/07/01 05:42:22;;;;;;;6.13;1.48;;;13.90;99.90;;;;;;5051597;28;20573;-65
2021/07/01 05:44:48;;;;;;;0.82;0.80;;;14.00;99.90;;;;;;5050366;28;20661;-66
2021/07/01 05:47:13;;;;;;;0.60;0.60;;;14.00;99.90;;;;;;5052256;28;20025;-66
2021/07/01 05:49:39;;;;;;;0.90;0.90;;;14.10;99.90;;;;;;5051270;28;20104;-65
2021/07/01 05:52:06;;;;;;;2.75;0.90;;;14.10;99.90;;;;;;5052194;28;20032;-67
2021/07/01 05:56:58;;;;;;;1.10;0.90;;;14.20;99.90;;;;;;5051755;28;20359;-67
2021/07/01 05:59:24;;;;;;;0.77;0.77;;;14.20;99.90;;;;;;5051821;28;20106;-66
2021/07/01 06:01:50;;;;;;;1.63;0.85;;;14.30;99.90;;;;;;5050889;28;20075;-66
2021/07/01 06:04:17;;;;;;;0.98;0.75;;;14.40;99.90;;;;;;5051658;28;20028;-66
2021/07/01 06:06:50;;;;;;;1.95;1.20;;;14.40;99.90;;;;;;5050691;28;20025;-64
2021/07/01 06:09:19;;;;;;;1.92;1.00;;;14.40;99.90;;;;;;5051892;28;20025;-65
2021/07/01 06:11:45;;;;;;;2.97;0.80;;;14.40;99.90;;;;;;5051369;28;20036;-63
2021/07/01 06:14:12;;;;;;;3.30;0.90;;;14.40;99.90;;;;;;5052093;28;20062;-69
2021/07/01 06:16:39;;;;;;;1.05;0.70;;;14.50;99.90;;;;;;5051753;28;20033;-67
2021/07/01 06:19:05;;;;;;;4.07;1.10;;;14.50;99.90;;;;;;5052104;28;20032;-70
2021/07/01 06:21:32;;;;;;;1.55;0.80;;;14.50;99.90;;;;;;5051176;28;20374;-71
2021/07/01 06:23:58;;;;;;;1.17;0.55;;;14.50;99.90;;;;;;5054027;28;20029;-71
2021/07/01 06:26:27;;;;;;;1.83;0.50;;;14.50;99.90;;;;;;5052366;28;20107;-71
2021/07/01 06:28:53;;;;;;;0.57;0.57;;;14.50;99.90;;;;;;5051817;28;20067;-71
2021/07/01 06:31:19;;;;;;;0.70;0.60;;;14.60;99.90;;;;;;5051434;28;20498;-70
2021/07/01 06:33:45;;;;;;;2.60;1.10;;;14.60;99.90;;;;;;5050553;28;20141;-72
2021/07/01 06:36:12;;;;;;;2.95;1.13;;;14.70;99.90;;;;;;5051272;28;20383;-71
2021/07/01 06:38:42;;;;;;;2.15;1.00;;;14.70;99.90;;;;;;5050933;28;20028;-71
2021/07/01 06:41:09;;;;;;;2.50;0.93;;;14.70;99.90;;;;;;5051626;28;20534;-71
2021/07/01 06:43:36;;;;;;;4.30;1.15;;;14.70;99.90;;;;;;5051315;28;20029;-71
2021/07/01 06:46:04;;;;;;;3.92;1.13;;;14.70;99.90;;;;;;5046794;28;20036;-64
2021/07/01 06:48:31;;;;;;;2.20;1.55;;;14.70;99.90;;;;;;5050562;28;20037;-65
2021/07/01 06:51:00;;;;;;;1.33;1.23;;;14.70;99.90;;;;;;5049344;28;20033;-65
2021/07/01 06:53:27;;;;;;;2.85;1.25;;;14.70;99.90;;;;;;5045464;28;20029;-64
2021/07/01 06:55:53;;;;;;;2.47;1.65;;;14.70;99.90;;;;;;5050448;28;20033;-64
2021/07/01 06:58:20;;;;;;;2.17;1.30;;;14.70;99.90;;;;;;5055160;28;20028;-65
2021/07/01 07:00:46;;;;;;;3.00;2.03;;;14.70;99.90;;;;;;5053054;28;20048;-64
2021/07/01 07:03:17;;;;;;;3.70;1.48;;;14.70;99.90;;;;;;5046267;28;20040;-64
2021/07/01 07:05:45;;;;;;;4.88;1.50;;;14.70;99.90;;;;;;5054039;28;20028;-64
2021/07/01 07:08:13;;;;;;;2.83;1.40;;;14.60;99.90;;;;;;5053260;28;20032;-64
2021/07/01 07:10:41;;;;;;;1.65;1.55;;;14.70;99.90;;;;;;5053318;28;20025;-65
2021/07/01 07:13:07;;;;;;;2.22;1.50;;;14.70;99.90;;;;;;5053690;28;20487;-65
2021/07/01 07:15:33;;;;;;;4.38;1.80;;;14.70;99.90;;;;;;5051358;28;20037;-65
2021/07/01 07:18:20;;;;;;;3.35;1.40;;;14.80;99.90;;;;;;5054002;28;20489;-64
2021/07/01 07:20:58;;;;;;;4.28;1.98;;;14.80;99.90;;;;;;5053546;28;20032;-65
2021/07/01 07:23:32;;;;;;;4.07;1.70;;;14.90;99.90;;;;;;5053788;28;20029;-65
2021/07/01 07:26:02;;;;;;;3.45;1.40;;;15.00;99.90;;;;;;5054437;28;20025;-65
2021/07/01 07:28:29;;;;;;;2.22;1.33;;;15.00;99.90;;;;;;5053249;28;20421;-65
2021/07/01 07:30:55;;;;;;;2.75;1.02;;;15.10;99.90;;;;;;5053552;28;20390;-65
2021/07/01 07:33:27;;;;;;;1.63;1.23;;;15.10;99.90;;;;;;5054879;28;20021;-65
2021/07/01 07:35:53;;;;;;;1.80;1.27;;;15.30;99.90;;;;;;5054091;28;20029;-65
2021/07/01 07:38:20;;;;;;;3.83;1.50;;;15.40;99.90;;;;;;5055068;28;20378;-65
2021/07/01 07:40:49;;;;;;;1.45;1.10;;;15.60;99.90;;;;;;5054270;28;20096;-65
2021/07/01 07:43:16;;;;;;;3.80;1.58;;;15.70;99.90;;;;;;5054438;28;20033;-65
2021/07/01 07:45:42;;;;;;;2.97;1.67;;;15.90;99.90;;;;;;5046594;28;20033;-65
2021/07/01 07:48:08;;;;;;;4.18;1.95;;;16.10;99.90;;;;;;5054199;28;20029;-65
2021/07/01 07:50:37;;;;;;;2.20;1.42;;;16.30;99.90;;;;;;5053677;28;20029;-65
2021/07/01 07:53:06;;;;;;;2.92;1.67;;;16.50;99.90;;;;;;5054087;28;20033;-65
2021/07/01 07:55:33;;;;;;;2.80;1.67;;;16.60;99.90;;;;;;5054333;28;20406;-65
2021/07/01 07:58:03;;;;;;;2.40;1.20;;;16.80;99.90;;;;;;5053208;28;20059;-65
2021/07/01 08:00:28;;;;;;;1.70;1.53;;;17.00;99.90;;;;;;5053977;28;20033;-65
2021/07/01 08:02:59;;;;;;;3.55;1.25;;;17.10;99.90;;;;;;5053005;28;20111;-65
2021/07/01 08:05:28;;;;;;;1.60;1.50;;;17.30;99.90;;;;;;5054173;28;20497;-65
2021/07/01 08:07:55;;;;;;;1.88;1.50;;;17.40;99.90;;;;;;5051745;28;20454;-65
2021/07/01 08:10:28;;;;;;;2.80;1.40;;;17.40;99.90;;;;;;5053226;28;20136;-66
2021/07/01 08:13:01;;;;;;;1.60;1.45;;;17.50;99.90;;;;;;5052455;28;20021;-66
2021/07/01 08:15:27;;;;;;;3.90;1.95;;;17.60;99.90;;;;;;5053760;28;20021;-66
2021/07/01 08:17:53;;;;;;;4.13;1.60;;;17.60;99.90;;;;;;5052834;28;20671;-66
2021/07/01 08:20:21;;;;;;;3.35;1.67;;;17.40;99.90;;;;;;5053480;28;20025;-66
2021/07/01 08:22:48;;;;;;;1.60;1.50;;;17.40;99.90;;;;;;5052625;28;20029;-66
2021/07/01 08:25:15;;;;;;;3.55;1.60;;;17.40;99.70;;;;;;5053437;28;20463;-65
2021/07/01 08:27:42;;;;;;;2.08;1.35;;;17.30;97.10;;;;;;5052763;28;20071;-66
2021/07/01 08:30:09;;;;;;;2.47;1.40;;;17.20;99.90;;;;;;5053192;28;20025;-68
2021/07/01 08:32:37;;;;;;;1.50;1.40;;;17.20;99.70;;;;;;5052748;28;20056;-66
2021/07/01 08:35:04;;;;;;;1.60;1.50;;;17.20;99.30;;;;;;5053116;28;20041;-66
2021/07/01 08:37:31;;;;;;;4.03;1.83;;;17.30;99.90;;;;;;5052054;28;20029;-66
2021/07/01 08:40:03;;;;;;;5.63;1.67;;;17.50;99.90;;;;;;5052878;28;20029;-66
2021/07/01 08:42:35;;;;;;;9.05;2.53;;;17.60;97.90;;;;;;5053703;28;20071;-66
2021/07/01 08:45:07;;;;;;;2.13;1.65;;;17.80;97.00;;;;;;5053784;28;20351;-66
2021/07/01 08:47:37;;;;;;;3.63;1.70;;;17.90;95.40;;;;;;5053158;28;20032;-67
2021/07/01 08:50:06;;;;;;;3.05;2.03;;;17.90;96.40;;;;;;5053620;28;20024;-66
2021/07/01 08:52:34;;;;;;;3.83;1.80;;;18.00;97.40;;;;;;5053512;28;20045;-66
2021/07/01 08:55:04;;;;;;;3.08;1.55;;;18.10;95.20;;;;;;5053827;28;20049;-66
2021/07/01 08:57:37;;;;;;;4.07;1.73;;;18.00;94.20;;;;;;5052937;28;20398;-66
2021/07/01 09:00:12;;;;;;;4.78;1.60;;;18.00;93.90;;;;;;5052971;28;20395;-66
2021/07/01 09:02:42;;;;;;;2.45;1.60;;;17.90;93.40;;;;;;5051794;28;20483;-66
2021/07/01 09:05:15;;;;;;;3.25;1.80;;;18.00;93.10;;;;;;5052421;28;20436;-66
2021/07/01 09:07:47;;;;;;;1.52;1.42;;;18.10;92.20;;;;;;5052227;28;20119;-66
2021/07/01 09:10:15;;;;;;;1.70;1.60;;;18.10;92.20;;;;;;5052830;28;20021;-63
2021/07/01 09:12:51;;;;;;;2.65;1.83;;;18.20;92.30;;;;;;5051669;28;20459;-64
2021/07/01 09:15:16;;;;;;;1.42;1.33;;;18.40;92.30;;;;;;5041254;28;20033;-63
2021/07/01 09:17:48;;;;;;;1.75;1.38;;;18.60;92.40;;;;;;5052083;28;20036;-63
2021/07/01 09:20:19;;;;;;;7.82;3.72;;;18.80;91.50;;;;;;5052807;28;20033;-63
2021/07/01 09:22:50;;;;;;;34.20;11.32;;;19.00;90.20;;;;;;5051007;28;20384;-63
2021/07/01 09:25:17;;;;;;;9.15;3.97;;;19.10;87.90;;;;;;5052568;28;20082;-63
2021/07/01 09:27:47;;;;;;;2.15;1.95;;;19.00;89.20;;;;;;5051498;28;20394;-64
2021/07/01 09:30:15;;;;;;;1.83;1.73;;;18.90;89.80;;;;;;5032203;28;20025;-63
2021/07/01 09:32:42;;;;;;;2.03;1.90;;;18.80;90.80;;;;;;5031517;28;20037;-66
2021/07/01 09:35:11;;;;;;;2.25;1.67;;;18.60;88.80;;;;;;5037230;28;20162;-66
2021/07/01 09:37:45;;;;;;;2.08;1.90;;;18.40;89.10;;;;;;5052084;28;20025;-66
2021/07/01 09:40:13;;;;;;;1.90;1.65;;;18.30;90.80;;;;;;5052733;28;20021;-63
2021/07/01 09:42:40;;;;;;;1.77;1.48;;;18.20;90.40;;;;;;5051806;28;20040;-64
2021/07/01 09:45:13;;;;;;;4.65;1.90;;;18.30;90.70;;;;;;5052438;28;20036;-64
2021/07/01 09:47:46;;;;;;;2.25;1.60;;;18.50;90.80;;;;;;5052410;28;20036;-64
2021/07/01 09:50:12;;;;;;;1.67;1.58;;;18.80;87.60;;;;;;5052622;28;20029;-64
2021/07/01 09:52:43;;;;;;;1.88;1.70;;;18.90;87.80;;;;;;5050272;28;20067;-67
2021/07/01 09:55:11;;;;;;;8.73;1.92;;;19.00;89.60;;;;;;5052236;28;20409;-64
2021/07/01 09:57:39;;;;;;;1.90;1.80;;;19.00;87.60;;;;;;5051627;28;20458;-64
2021/07/01 10:00:10;;;;;;;2.10;1.52;;;19.10;87.50;;;;;;5052197;28;20032;-64
2021/07/01 10:02:36;;;;;;;4.70;1.77;;;19.10;87.90;;;;;;5051302;28;20505;-65
2021/07/01 10:05:08;;;;;;;1.55;1.45;;;19.20;85.40;;;;;;5051611;28;20437;-64
2021/07/01 10:07:47;;;;;;;4.18;1.83;;;19.20;84.60;;;;;;5052022;28;20042;-64
2021/07/01 10:10:14;;;;;;;1.95;1.60;;;19.00;86.40;;;;;;5051958;28;20053;-64
2021/07/01 10:12:59;;;;;;;1.92;1.83;;;19.00;85.40;;;;;;5050842;28;20119;-64
2021/07/01 10:15:32;;;;;;;1.92;1.70;;;18.90;86.00;;;;;;5042105;28;20470;-64
2021/07/01 10:18:03;;;;;;;2.25;1.45;;;18.80;87.30;;;;;;5051644;28;20025;-64
2021/07/01 10:20:43;;;;;;;2.60;1.60;;;18.70;86.40;;;;;;5052079;28;20501;-64
2021/07/01 10:23:30;;;;;;;3.15;1.60;;;18.60;86.80;;;;;;5052139;28;20088;-64
2021/07/01 10:26:11;;;;;;;1.38;1.27;;;18.40;88.30;;;;;;5051165;28;20044;-64
2021/07/01 10:28:37;;;;;;;1.25;1.20;;;18.30;86.50;;;;;;5050629;28;20036;-64
2021/07/01 10:31:14;;;;;;;2.42;1.40;;;18.30;86.10;;;;;;5049776;28;20041;-64
2021/07/01 10:33:43;;;;;;;1.65;1.40;;;18.10;87.90;;;;;;5054852;28;20029;-64
2021/07/01 10:36:18;;;;;;;1.63;1.30;;;18.00;88.20;;;;;;5054635;28;20032;-64
2021/07/01 10:38:47;;;;;;;1.33;1.23;;;17.90;89.30;;;;;;5054876;28;20028;-64
2021/07/01 10:41:35;;;;;;;3.77;1.53;;;17.80;89.80;;;;;;5055587;28;20037;-64
2021/07/01 10:44:03;;;;;;;1.52;1.38;;;17.80;90.40;;;;;;5054483;28;20048;-64
2021/07/01 10:46:45;;;;;;;1.42;1.33;;;17.60;90.50;;;;;;5054714;28;20075;-64
2021/07/01 10:49:12;;;;;;;2.17;1.35;;;17.50;91.00;;;;;;5055489;28;20064;-64
2021/07/01 10:51:54;;;;;;;1.13;1.13;;;17.40;91.20;;;;;;5054958;28;20108;-64
2021/07/01 10:54:19;;;;;;;1.73;1.23;;;17.40;93.20;;;;;;5054909;28;20045;-64
2021/07/01 10:56:53;;;;;;;2.35;1.30;;;17.20;97.00;;;;;;5054380;28;20036;-64
2021/07/01 10:59:18;;;;;;;2.08;1.48;;;16.70;99.90;;;;;;5055244;28;20426;-64
2021/07/01 11:01:45;;;;;;;2.05;1.40;;;16.50;99.90;;;;;;5052881;28;20032;-64
2021/07/01 11:04:15;;;;;;;2.97;1.55;;;16.20;99.90;;;;;;5054799;28;20041;-64
2021/07/01 11:06:44;;;;;;;3.40;1.58;;;16.10;99.90;;;;;;5054209;28;20033;-64
2021/07/01 11:09:11;;;;;;;1.40;1.30;;;16.00;99.90;;;;;;5053773;28;20037;-64
2021/07/01 11:11:42;;;;;;;1.23;1.13;;;15.90;99.90;;;;;;5054688;28;20033;-64
2021/07/01 11:14:13;;;;;;;3.67;1.40;;;15.90;99.90;;;;;;5054201;28;20063;-64
2021/07/01 11:16:39;;;;;;;1.45;1.35;;;15.90;99.90;;;;;;5034629;28;20112;-64
2021/07/01 11:19:10;;;;;;;2.35;1.92;;;16.00;99.90;;;;;;5034778;28;20026;-64
2021/07/01 11:21:47;;;;;;;3.55;1.38;;;16.10;99.90;;;;;;5034941;28;20040;-64
2021/07/01 11:24:21;;;;;;;1.58;1.15;;;16.10;99.90;;;;;;5034575;28;20033;-64
2021/07/01 11:26:52;;;;;;;1.58;1.45;;;16.00;99.90;;;;;;5033750;28;20443;-64
2021/07/01 11:29:34;;;;;;;1.60;1.40;;;16.10;99.90;;;;;;5034655;28;20029;-64
2021/07/01 11:32:00;;;;;;;2.40;2.20;;;16.10;99.90;;;;;;5034245;28;20257;-64
2021/07/01 11:34:40;;;;;;;3.47;1.50;;;16.20;99.90;;;;;;5034284;28;20034;-64
2021/07/01 11:37:05;;;;;;;3.90;1.80;;;16.30;99.90;;;;;;5053992;28;20108;-64
2021/07/01 11:39:33;;;;;;;2.58;2.20;;;16.30;99.90;;;;;;5054019;28;20072;-64
2021/07/01 11:42:03;;;;;;;1.77;1.67;;;16.40;99.90;;;;;;5053190;28;20489;-64
2021/07/01 11:44:29;;;;;;;3.30;1.58;;;16.40;99.90;;;;;;5053072;28;20021;-64
2021/07/01 11:46:56;;;;;;;3.17;1.70;;;16.50;99.80;;;;;;5053544;28;20040;-64
2021/07/01 11:49:22;;;;;;;2.25;1.67;;;16.50;99.90;;;;;;5054472;28;20021;-64
2021/07/01 11:51:48;;;;;;;3.40;1.95;;;16.60;99.10;;;;;;5053949;28;20029;-64
2021/07/01 11:54:15;;;;;;;2.90;1.60;;;16.70;97.90;;;;;;5054089;28;20508;-64
2021/07/01 11:56:56;;;;;;;3.03;2.00;;;16.70;98.20;;;;;;5053801;28;20119;-64
2021/07/01 11:59:26;;;;;;;3.67;1.90;;;16.80;98.40;;;;;;5052725;28;20049;-64
2021/07/01 12:01:52;;;;;;;2.75;2.00;;;17.00;98.30;;;;;;5054810;28;20033;-64
2021/07/01 12:04:23;;;;;;;2.00;1.90;;;17.10;96.50;;;;;;5054515;28;20394;-64
2021/07/01 12:07:01;;;;;;;2.88;2.08;;;17.30;96.90;;;;;;5052933;28;20021;-64
2021/07/01 12:09:29;;;;;;;2.20;1.83;;;17.40;96.30;;;;;;5053884;28;20029;-64
2021/07/01 12:12:03;;;;;;;2.90;2.10;;;17.60;96.00;;;;;;5053326;28;20024;-64
2021/07/01 12:14:36;;;;;;;3.13;1.60;;;17.80;94.70;;;;;;5053836;28;20025;-64
2021/07/01 12:17:02;;;;;;;3.33;1.98;;;18.10;94.30;;;;;;5053150;28;20028;-64
2021/07/01 12:19:58;;;;;;;2.10;1.90;;;18.20;93.40;;;;;;5053811;28;20029;-64
2021/07/01 12:22:43;;;;;;;2.00;1.80;;;18.40;92.60;;;;;;5053489;28;20436;-64
2021/07/01 12:25:20;;;;;;;2.28;2.00;;;18.60;92.50;;;;;;5053460;28;20048;-64
2021/07/01 12:30:51;;;;;;;2.17;1.98;;;18.70;89.60;;;;;;5053683;28;20044;-64
2021/07/01 12:33:35;;;;;;;3.05;2.30;;;18.70;90.40;;;;;;5053512;28;20029;-64
2021/07/01 12:36:06;;;;;;;2.60;2.25;;;18.80;88.40;;;;;;5052613;28;20040;-64
2021/07/01 12:38:33;;;;;;;2.50;2.05;;;19.00;86.90;;;;;;5053579;28;20370;-64
2021/07/01 12:41:01;;;;;;;5.28;2.20;;;19.30;84.20;;;;;;5052317;28;20025;-64
2021/07/01 12:43:47;;;;;;;3.78;2.53;;;19.50;80.80;;;;;;5053531;28;20516;-64
2021/07/01 12:46:41;;;;;;;2.50;2.20;;;19.70;79.50;;;;;;5053268;28;20036;-64
2021/07/01 12:49:31;;;;;;;2.15;2.05;;;19.80;77.80;;;;;;5053103;28;20056;-64
2021/07/01 12:51:59;;;;;;;3.08;2.80;;;19.90;77.10;;;;;;5049056;28;20037;-64
2021/07/01 12:54:27;;;;;;;3.47;2.35;;;20.00;77.80;;;;;;5052842;28;20043;-64
2021/07/01 12:56:56;;;;;;;2.80;2.60;;;19.80;79.50;;;;;;5052379;28;20033;-64
2021/07/01 12:59:22;;;;;;;3.30;2.42;;;19.70;79.60;;;;;;5053477;28;20071;-64